Time;durP1;ratioP1;P1;durP2;ratioP2;P2;SDS_P1;SDS_P2;PMS_P1;PMS_P2;Temp;Humidity;BMP_temperature;BMP_pressure;BME280_temperature;BME280_humidity;BME280_pressure;Samples;Min_cycle;Max_cycle;Signal;HPM_P1;HPM_P2
2023/06/26 00:00:34;;;;;;;5.97;5.37;;;23.20;57.70;;;;;;5094552;28;20442;-70
2023/06/26 00:02:59;;;;;;;6.03;5.50;;;23.10;57.70;;;;;;5107123;28;20184;-71
2023/06/26 00:05:27;;;;;;;7.03;6.37;;;23.10;57.80;;;;;;5103429;28;20309;-74
2023/06/26 00:07:53;;;;;;;6.07;5.40;;;23.00;57.80;;;;;;5084744;28;20179;-69
2023/06/26 00:10:18;;;;;;;7.40;6.10;;;23.00;57.90;;;;;;5107189;28;20437;-70
2023/06/26 00:12:44;;;;;;;7.20;5.90;;;22.90;57.90;;;;;;5117364;28;20176;-69
2023/06/26 00:15:10;;;;;;;7.30;6.50;;;22.90;58.00;;;;;;5097755;28;20527;-71
2023/06/26 00:17:37;;;;;;;7.87;6.40;;;22.90;58.00;;;;;;5107322;28;20184;-70
2023/06/26 00:20:05;;;;;;;6.23;5.67;;;22.90;58.50;;;;;;5096747;28;20401;-70
2023/06/26 00:22:32;;;;;;;6.87;5.90;;;22.80;57.80;;;;;;5110586;28;20414;-70
2023/06/26 00:24:57;;;;;;;8.13;6.10;;;22.80;57.80;;;;;;5097015;28;20433;-71
2023/06/26 00:27:23;;;;;;;6.00;5.50;;;22.70;57.70;;;;;;5102268;28;20196;-70
2023/06/26 00:29:48;;;;;;;5.30;4.80;;;22.70;57.70;;;;;;5091480;28;20232;-71
2023/06/26 00:32:14;;;;;;;6.73;6.07;;;22.70;57.70;;;;;;5102625;28;20229;-70
2023/06/26 00:34:39;;;;;;;7.30;6.53;;;22.60;57.60;;;;;;5113518;28;20394;-71
2023/06/26 00:37:05;;;;;;;7.73;6.93;;;22.60;57.60;;;;;;5105935;28;20194;-70
2023/06/26 00:39:30;;;;;;;7.33;6.50;;;22.60;57.70;;;;;;5091423;28;20261;-70
2023/06/26 00:41:56;;;;;;;7.57;6.87;;;22.60;57.80;;;;;;5100252;28;20282;-72
2023/06/26 00:44:22;;;;;;;7.33;6.63;;;22.60;58.10;;;;;;5114034;28;20200;-71
2023/06/26 00:46:47;;;;;;;7.00;6.30;;;22.60;58.30;;;;;;5075989;28;20557;-71
2023/06/26 00:49:14;;;;;;;6.77;6.07;;;22.50;58.60;;;;;;5089686;28;20199;-71
2023/06/26 00:51:40;;;;;;;7.40;6.70;;;22.50;59.00;;;;;;5096133;28;20410;-71
2023/06/26 00:54:05;;;;;;;7.50;6.80;;;22.50;59.50;;;;;;5096320;28;20168;-71
2023/06/26 00:56:32;;;;;;;8.07;7.03;;;22.50;60.00;;;;;;5093919;28;20180;-71
2023/06/26 00:58:58;;;;;;;7.07;6.40;;;22.40;60.60;;;;;;5116353;28;20516;-71
2023/06/26 01:01:25;;;;;;;6.70;6.03;;;22.40;61.10;;;;;;5062348;28;20426;-72
2023/06/26 01:03:52;;;;;;;6.10;5.60;;;22.40;61.50;;;;;;5076245;28;20442;-71
2023/06/26 01:06:22;;;;;;;6.53;5.93;;;22.30;61.90;;;;;;5076594;28;20192;-73
2023/06/26 01:08:48;;;;;;;6.87;5.27;;;22.20;62.30;;;;;;5095573;28;20427;-71
2023/06/26 01:11:14;;;;;;;5.13;4.63;;;22.20;62.60;;;;;;5097400;28;20642;-71
2023/06/26 01:13:42;;;;;;;5.80;5.27;;;22.20;63.50;;;;;;5096044;28;20506;-72
2023/06/26 01:16:09;;;;;;;6.53;5.77;;;22.10;62.70;;;;;;5064582;28;20419;-71
2023/06/26 01:18:36;;;;;;;6.77;6.10;;;22.10;62.80;;;;;;5112366;28;20430;-70
2023/06/26 01:21:04;;;;;;;6.30;5.70;;;22.10;62.90;;;;;;5097376;28;20490;-71
2023/06/26 01:23:39;;;;;;;6.60;6.00;;;22.00;63.00;;;;;;5115914;28;20402;-70
2023/06/26 01:26:07;;;;;;;7.10;6.40;;;22.00;64.30;;;;;;5101276;28;20847;-71
2023/06/26 01:28:35;;;;;;;5.73;5.23;;;22.00;63.50;;;;;;5116151;28;20725;-71
2023/06/26 01:31:02;;;;;;;7.30;6.30;;;21.90;63.60;;;;;;5097756;28;20451;-70
2023/06/26 01:33:30;;;;;;;9.90;6.50;;;21.90;63.90;;;;;;5113243;28;20517;-70
2023/06/26 01:35:56;;;;;;;6.03;5.43;;;21.90;64.30;;;;;;5101014;28;20429;-71
2023/06/26 01:38:25;;;;;;;6.23;5.63;;;21.90;64.60;;;;;;5098121;28;20405;-72
2023/06/26 01:40:52;;;;;;;6.37;5.77;;;21.80;64.90;;;;;;5080269;28;20196;-72
2023/06/26 01:43:48;;;;;;;7.57;6.87;;;21.80;65.50;;;;;;5077844;28;20431;-70
2023/06/26 01:46:23;;;;;;;6.73;6.13;;;21.80;66.20;;;;;;5074926;28;20439;-70
2023/06/26 01:48:57;;;;;;;6.57;5.97;;;21.70;66.70;;;;;;5081815;28;20461;-71
2023/06/26 01:51:30;;;;;;;7.50;6.00;;;21.70;67.40;;;;;;5113042;28;20429;-71
2023/06/26 01:53:58;;;;;;;6.40;5.80;;;21.70;68.00;;;;;;5078096;28;20705;-71
2023/06/26 01:56:25;;;;;;;5.63;5.13;;;21.60;68.50;;;;;;5106762;28;20505;-71
2023/06/26 01:58:54;;;;;;;5.80;5.30;;;21.60;69.00;;;;;;5096775;28;20517;-70
2023/06/26 02:01:20;;;;;;;5.03;4.53;;;21.60;69.90;;;;;;5093204;28;20426;-71
2023/06/26 02:03:46;;;;;;;5.60;5.10;;;21.50;70.40;;;;;;5102237;28;20538;-71
2023/06/26 02:06:11;;;;;;;4.93;4.43;;;21.60;71.10;;;;;;5095539;28;20701;-68
2023/06/26 02:08:37;;;;;;;4.27;3.87;;;21.60;71.70;;;;;;5098529;28;20179;-70
2023/06/26 02:11:03;;;;;;;5.27;4.80;;;21.50;72.10;;;;;;5077107;28;20203;-70
2023/06/26 02:13:28;;;;;;;4.90;4.40;;;21.40;72.50;;;;;;5091512;28;20232;-70
2023/06/26 02:15:54;;;;;;;5.40;4.87;;;21.40;73.00;;;;;;5072538;28;20222;-71
2023/06/26 02:18:22;;;;;;;5.50;5.00;;;21.40;73.40;;;;;;5105524;28;20241;-70
2023/06/26 02:20:49;;;;;;;6.87;6.20;;;21.40;73.70;;;;;;5109884;28;20196;-71
2023/06/26 02:23:14;;;;;;;6.10;5.50;;;21.40;73.70;;;;;;5077192;28;20417;-71
2023/06/26 02:25:40;;;;;;;5.43;4.93;;;21.40;74.00;;;;;;5084194;28;20505;-70
2023/06/26 02:28:05;;;;;;;5.40;4.90;;;21.40;74.60;;;;;;5110984;28;20304;-70
2023/06/26 02:30:31;;;;;;;5.33;4.33;;;21.30;75.40;;;;;;5079986;28;20216;-71
2023/06/26 02:32:59;;;;;;;5.27;4.77;;;21.30;76.50;;;;;;5069884;28;20177;-71
2023/06/26 02:35:24;;;;;;;7.00;6.30;;;21.20;77.10;;;;;;5119181;28;20939;-72
2023/06/26 02:37:50;;;;;;;6.70;6.10;;;21.20;77.90;;;;;;5113830;28;20188;-72
2023/06/26 02:40:16;;;;;;;6.57;5.90;;;21.10;79.10;;;;;;5091392;28;20231;-72
2023/06/26 02:42:42;;;;;;;6.27;5.67;;;21.10;79.80;;;;;;5101688;28;20433;-71
2023/06/26 02:45:09;;;;;;;6.23;5.63;;;21.10;80.60;;;;;;5077044;28;20230;-70
2023/06/26 02:47:34;;;;;;;4.97;4.57;;;21.10;81.30;;;;;;5060655;28;20877;-71
2023/06/26 02:50:00;;;;;;;5.60;5.10;;;21.00;82.10;;;;;;5106477;28;20543;-71
2023/06/26 02:52:43;;;;;;;5.17;4.67;;;21.00;83.00;;;;;;5101085;28;20167;-70
2023/06/26 02:55:08;;;;;;;7.53;6.77;;;21.00;83.90;;;;;;5115923;28;20440;-72
2023/06/26 02:57:34;;;;;;;6.93;6.27;;;21.00;84.80;;;;;;5100988;28;20175;-71
2023/06/26 03:00:00;;;;;;;6.00;5.50;;;21.00;85.00;;;;;;5088941;28;20208;-70
2023/06/26 03:02:25;;;;;;;7.90;7.10;;;21.00;84.80;;;;;;5072740;28;20188;-70
2023/06/26 03:04:52;;;;;;;5.80;5.30;;;21.00;84.70;;;;;;5089773;28;20223;-70
2023/06/26 03:07:18;;;;;;;5.30;4.80;;;21.00;84.40;;;;;;5084513;28;20410;-71
2023/06/26 03:09:43;;;;;;;7.30;6.60;;;21.00;83.80;;;;;;5111352;28;20199;-72
2023/06/26 03:12:11;;;;;;;7.60;6.90;;;21.00;83.00;;;;;;5085930;28;20526;-70
2023/06/26 03:14:37;;;;;;;6.57;5.90;;;21.10;81.70;;;;;;5075996;28;20495;-72
2023/06/26 03:17:03;;;;;;;5.57;5.13;;;21.10;80.40;;;;;;5071796;28;20259;-72
2023/06/26 03:19:30;;;;;;;6.70;4.87;;;21.10;79.40;;;;;;5099983;28;20192;-72
2023/06/26 03:22:28;;;;;;;4.97;4.53;;;21.20;78.40;;;;;;5088399;28;20417;-71
2023/06/26 03:24:55;;;;;;;7.37;6.03;;;21.30;76.50;;;;;;5096904;28;20453;-72
2023/06/26 03:27:21;;;;;;;7.80;7.10;;;21.40;74.70;;;;;;5109363;28;20607;-71
2023/06/26 03:29:48;;;;;;;7.53;6.33;;;21.50;73.10;;;;;;5081492;28;20528;-72
2023/06/26 03:32:14;;;;;;;6.13;5.50;;;21.60;71.80;;;;;;5096287;28;20448;-71
2023/06/26 03:34:40;;;;;;;6.10;5.50;;;21.70;71.20;;;;;;5099231;28;20453;-70
2023/06/26 03:37:06;;;;;;;7.17;6.47;;;21.80;70.90;;;;;;5090477;28;20172;-71
2023/06/26 03:39:31;;;;;;;6.93;6.23;;;21.90;71.30;;;;;;5097511;28;20503;-71
2023/06/26 03:42:00;;;;;;;6.50;5.90;;;21.90;72.00;;;;;;5115052;28;20242;-70
2023/06/26 03:44:27;;;;;;;13.67;7.80;;;21.90;72.00;;;;;;5076666;28;20207;-71
2023/06/26 03:46:53;;;;;;;6.60;5.90;;;21.90;72.40;;;;;;5096898;28;20829;-70
2023/06/26 03:49:18;;;;;;;6.43;5.60;;;21.90;72.90;;;;;;5067937;28;20402;-71
2023/06/26 03:51:44;;;;;;;6.90;6.30;;;21.90;74.20;;;;;;5088857;28;20417;-70
2023/06/26 03:54:11;;;;;;;8.87;6.37;;;22.00;74.30;;;;;;5121360;28;20464;-70
2023/06/26 03:56:37;;;;;;;7.40;6.70;;;22.00;74.70;;;;;;5102462;28;20497;-71
2023/06/26 03:59:05;;;;;;;6.70;6.00;;;22.00;74.80;;;;;;5082166;28;20471;-71
2023/06/26 04:01:31;;;;;;;8.00;6.90;;;22.10;74.90;;;;;;5047778;28;20473;-70
2023/06/26 04:03:56;;;;;;;8.13;6.33;;;22.10;74.90;;;;;;5102899;28;20478;-71
2023/06/26 04:06:22;;;;;;;7.77;7.00;;;22.10;74.50;;;;;;5084180;28;20184;-71
2023/06/26 04:08:48;;;;;;;9.03;7.13;;;22.10;74.60;;;;;;5111592;28;20528;-70
2023/06/26 04:11:13;;;;;;;7.70;6.87;;;22.10;74.60;;;;;;5097085;28;20180;-70
2023/06/26 04:13:39;;;;;;;9.60;6.67;;;22.10;74.80;;;;;;5104184;28;20574;-70
2023/06/26 04:16:06;;;;;;;8.10;6.00;;;22.20;74.80;;;;;;5094341;28;20514;-71
2023/06/26 04:18:31;;;;;;;5.93;5.40;;;22.20;74.50;;;;;;5107411;28;20352;-70
2023/06/26 04:21:11;;;;;;;6.83;6.13;;;22.20;74.50;;;;;;5117521;28;20453;-70
2023/06/26 04:23:37;;;;;;;9.17;5.77;;;22.30;74.60;;;;;;5103501;28;20448;-71
2023/06/26 04:26:04;;;;;;;10.10;8.40;;;22.40;75.30;;;;;;5096599;28;20403;-70
2023/06/26 04:28:30;;;;;;;9.27;6.07;;;22.40;75.20;;;;;;5102741;28;20454;-71
2023/06/26 04:30:56;;;;;;;7.10;5.70;;;22.50;75.00;;;;;;5101648;28;20430;-70
2023/06/26 04:33:23;;;;;;;9.20;5.90;;;22.60;75.00;;;;;;5104213;28;20750;-71
2023/06/26 04:35:48;;;;;;;6.70;5.90;;;22.60;75.60;;;;;;5116420;28;20178;-71
2023/06/26 04:38:15;;;;;;;7.30;6.07;;;22.60;76.20;;;;;;5108065;28;20505;-72
2023/06/26 04:40:41;;;;;;;12.13;6.27;;;22.60;76.60;;;;;;5096051;28;20192;-71
2023/06/26 04:43:06;;;;;;;5.53;4.93;;;22.70;76.10;;;;;;5106250;28;20417;-72
2023/06/26 04:45:32;;;;;;;11.00;6.43;;;22.80;75.30;;;;;;5109755;28;21182;-70
2023/06/26 04:47:57;;;;;;;6.97;5.47;;;22.90;74.80;;;;;;5095519;28;20256;-72
2023/06/26 04:50:23;;;;;;;7.33;5.80;;;23.20;72.50;;;;;;5092347;28;20229;-72
2023/06/26 04:52:48;;;;;;;6.17;5.57;;;23.50;69.30;;;;;;5111550;28;20598;-73
2023/06/26 04:55:14;;;;;;;5.97;5.47;;;23.70;67.90;;;;;;5098240;28;20184;-71
2023/06/26 04:57:39;;;;;;;6.27;5.60;;;24.00;66.20;;;;;;5103974;28;20224;-71
2023/06/26 05:00:09;;;;;;;8.07;5.50;;;24.20;63.30;;;;;;5109415;28;20204;-71
2023/06/26 05:02:35;;;;;;;7.50;6.13;;;24.30;62.10;;;;;;5103016;28;20259;-71
2023/06/26 05:05:01;;;;;;;7.70;5.90;;;24.60;61.10;;;;;;5100388;28;20532;-70
2023/06/26 05:07:26;;;;;;;7.70;5.43;;;24.70;60.20;;;;;;5100349;28;20273;-73
2023/06/26 05:09:52;;;;;;;6.23;5.63;;;24.80;59.90;;;;;;5102609;28;20269;-74
2023/06/26 05:12:17;;;;;;;6.47;5.23;;;25.00;58.90;;;;;;5096071;28;20636;-70
2023/06/26 05:14:43;;;;;;;7.13;5.00;;;24.90;58.00;;;;;;5116059;28;20203;-71
2023/06/26 05:17:09;;;;;;;10.00;5.70;;;24.90;58.20;;;;;;5100737;28;20191;-71
2023/06/26 05:19:34;;;;;;;10.83;4.97;;;24.60;58.20;;;;;;5100109;28;20231;-73
2023/06/26 05:22:03;;;;;;;8.00;6.10;;;24.60;58.70;;;;;;5100653;28;20164;-71
2023/06/26 05:24:30;;;;;;;7.53;5.53;;;24.70;58.10;;;;;;5102400;28;20249;-73
2023/06/26 05:26:56;;;;;;;7.97;6.03;;;24.50;58.20;;;;;;5065305;28;20431;-73
2023/06/26 05:29:22;;;;;;;6.33;5.73;;;24.40;58.30;;;;;;5080706;28;20488;-71
2023/06/26 05:31:51;;;;;;;9.53;6.17;;;24.30;58.50;;;;;;5099518;28;20188;-73
2023/06/26 05:34:19;;;;;;;10.10;7.37;;;24.10;59.20;;;;;;5103683;28;20194;-72
2023/06/26 05:36:46;;;;;;;8.33;5.60;;;23.90;59.90;;;;;;5123298;28;20416;-75
2023/06/26 05:39:12;;;;;;;5.90;5.20;;;24.10;59.70;;;;;;5092175;28;20460;-74
2023/06/26 05:41:38;;;;;;;8.90;6.50;;;24.40;59.30;;;;;;5118727;28;20418;-74
2023/06/26 05:44:03;;;;;;;5.70;5.10;;;24.80;58.70;;;;;;5101388;28;20410;-72
2023/06/26 05:46:29;;;;;;;6.70;5.10;;;25.10;57.30;;;;;;5104743;28;20175;-74
2023/06/26 05:48:55;;;;;;;6.33;4.80;;;25.30;56.80;;;;;;5083819;28;20180;-72
2023/06/26 05:51:20;;;;;;;6.23;5.50;;;25.30;56.30;;;;;;5084831;28;20180;-73
2023/06/26 05:53:46;;;;;;;5.83;5.17;;;25.20;56.40;;;;;;5106435;28;20172;-76
2023/06/26 05:56:12;;;;;;;8.37;5.73;;;25.10;56.50;;;;;;5105764;28;20183;-72
2023/06/26 05:58:39;;;;;;;8.50;5.03;;;24.80;57.00;;;;;;5104300;28;20186;-73
2023/06/26 06:01:04;;;;;;;7.07;5.73;;;24.70;57.60;;;;;;5106924;28;20479;-74
2023/06/26 06:03:30;;;;;;;7.90;5.40;;;24.30;58.30;;;;;;5102660;28;20467;-75
2023/06/26 06:05:56;;;;;;;8.63;5.33;;;24.10;59.00;;;;;;5102888;28;20185;-73
2023/06/26 06:08:21;;;;;;;7.63;6.77;;;24.20;59.30;;;;;;5084998;28;20176;-71
2023/06/26 06:10:47;;;;;;;6.20;5.50;;;24.30;59.40;;;;;;5114363;28;20202;-73
2023/06/26 06:13:12;;;;;;;7.00;4.97;;;24.70;58.40;;;;;;5105287;28;20209;-71
2023/06/26 06:15:38;;;;;;;7.50;5.50;;;25.10;57.60;;;;;;5086336;28;20248;-74
2023/06/26 06:18:03;;;;;;;6.30;4.60;;;25.10;57.30;;;;;;5107621;28;20256;-74
2023/06/26 06:20:29;;;;;;;9.13;5.60;;;24.70;58.00;;;;;;5121486;28;20200;-73
2023/06/26 06:22:55;;;;;;;8.10;5.20;;;24.70;58.60;;;;;;5107110;28;20179;-74
2023/06/26 06:25:20;;;;;;;7.27;5.13;;;24.90;58.50;;;;;;5104798;28;20208;-75
2023/06/26 06:27:46;;;;;;;6.50;5.17;;;25.10;58.00;;;;;;5104401;28;20190;-74
2023/06/26 06:30:12;;;;;;;7.27;4.70;;;25.20;57.90;;;;;;5090062;28;20256;-75
2023/06/26 06:32:37;;;;;;;13.93;5.50;;;25.10;57.80;;;;;;5107346;28;20164;-73
2023/06/26 06:35:09;;;;;;;6.50;5.10;;;24.90;58.00;;;;;;5089257;28;20440;-76
2023/06/26 06:37:38;;;;;;;9.10;5.57;;;24.70;58.60;;;;;;5105824;28;20184;-75
2023/06/26 06:40:06;;;;;;;7.90;5.50;;;24.20;59.90;;;;;;5104492;28;20469;-75
2023/06/26 06:42:33;;;;;;;7.90;5.50;;;24.00;61.70;;;;;;5117260;28;20405;-73
2023/06/26 06:44:59;;;;;;;18.53;10.70;;;23.80;62.10;;;;;;5122488;28;20477;-76
2023/06/26 06:47:24;;;;;;;10.27;5.43;;;23.70;62.90;;;;;;5086732;28;20422;-75
2023/06/26 06:49:50;;;;;;;7.83;5.40;;;23.60;64.30;;;;;;5102005;28;20207;-73
2023/06/26 06:52:15;;;;;;;10.37;4.50;;;23.60;64.90;;;;;;5086173;28;20173;-75
2023/06/26 06:55:05;;;;;;;11.50;4.83;;;23.50;64.80;;;;;;5089794;28;20195;-75
2023/06/26 06:57:31;;;;;;;6.93;4.77;;;23.50;65.50;;;;;;5104757;28;20413;-72
2023/06/26 06:59:57;;;;;;;6.80;4.40;;;23.40;65.50;;;;;;5101455;28;20507;-74
2023/06/26 07:02:23;;;;;;;9.73;5.50;;;23.40;65.80;;;;;;5085029;28;20487;-74
2023/06/26 07:04:48;;;;;;;8.23;5.30;;;23.50;65.80;;;;;;5114300;28;20817;-73
2023/06/26 07:07:18;;;;;;;10.67;4.93;;;23.60;65.60;;;;;;5108878;28;20459;-76
2023/06/26 07:09:44;;;;;;;8.57;4.60;;;24.00;65.10;;;;;;5118394;28;20232;-76
2023/06/26 07:12:10;;;;;;;9.17;5.17;;;24.30;64.10;;;;;;5090237;28;20421;-77
2023/06/26 07:14:35;;;;;;;12.73;5.00;;;24.50;62.40;;;;;;5119200;28;20271;-75
2023/06/26 07:17:01;;;;;;;7.90;4.03;;;24.60;61.70;;;;;;5073969;28;20176;-75
2023/06/26 07:19:26;;;;;;;9.60;5.10;;;24.80;61.40;;;;;;5108986;28;20200;-74
2023/06/26 07:21:52;;;;;;;19.90;6.17;;;25.10;59.90;;;;;;5092382;28;20180;-77
2023/06/26 07:24:18;;;;;;;9.73;5.57;;;25.20;59.30;;;;;;5092776;28;20204;-76
2023/06/26 07:26:43;;;;;;;7.37;5.23;;;25.00;59.90;;;;;;5091763;28;20176;-76
2023/06/26 07:29:09;;;;;;;7.60;5.57;;;24.70;60.50;;;;;;5109540;28;20242;-76
2023/06/26 07:31:34;;;;;;;9.00;5.40;;;24.50;61.50;;;;;;5089875;28;20251;-74
2023/06/26 07:34:00;;;;;;;9.53;5.40;;;24.30;62.90;;;;;;5130055;28;20497;-76
2023/06/26 07:36:26;;;;;;;9.40;5.13;;;24.30;63.40;;;;;;5079371;28;20189;-74
2023/06/26 07:38:51;;;;;;;6.87;4.60;;;24.20;63.90;;;;;;5091301;28;20170;-76
2023/06/26 07:41:17;;;;;;;8.23;5.03;;;24.20;63.70;;;;;;5092916;28;20248;-75
2023/06/26 07:43:42;;;;;;;10.50;5.90;;;24.10;64.10;;;;;;5109979;28;20539;-73
2023/06/26 07:46:08;;;;;;;6.67;4.43;;;24.00;64.00;;;;;;5108125;28;20184;-77
2023/06/26 07:48:33;;;;;;;10.93;5.60;;;24.00;64.40;;;;;;5093225;28;20169;-73
2023/06/26 07:50:59;;;;;;;7.87;5.47;;;24.00;65.00;;;;;;5092072;28;20280;-76
2023/06/26 07:53:25;;;;;;;5.10;4.30;;;24.00;64.80;;;;;;5091794;28;20568;-76
2023/06/26 07:55:50;;;;;;;7.30;5.50;;;24.20;63.90;;;;;;5105745;28;20205;-75
2023/06/26 07:58:16;;;;;;;14.60;6.17;;;24.10;64.00;;;;;;5127505;28;20204;-73
2023/06/26 08:00:42;;;;;;;12.63;4.77;;;24.00;64.50;;;;;;5079533;28;20582;-75
2023/06/26 08:03:07;;;;;;;10.27;5.37;;;24.20;64.10;;;;;;5085547;28;20189;-77
2023/06/26 08:05:33;;;;;;;12.00;5.27;;;24.30;63.80;;;;;;5111765;28;20195;-77
2023/06/26 08:08:01;;;;;;;8.73;4.90;;;24.30;64.50;;;;;;5094867;28;20176;-77
2023/06/26 08:10:27;;;;;;;10.80;5.33;;;24.40;64.90;;;;;;5093922;28;20483;-75
2023/06/26 08:12:52;;;;;;;9.30;5.80;;;24.60;63.90;;;;;;5112135;28;20413;-73
2023/06/26 08:15:18;;;;;;;13.20;6.20;;;24.60;63.80;;;;;;5096763;28;20231;-73
2023/06/26 08:17:45;;;;;;;9.20;5.50;;;24.70;63.10;;;;;;5071837;28;20237;-74
2023/06/26 08:20:11;;;;;;;6.87;5.53;;;24.70;62.30;;;;;;5107398;28;20219;-72
2023/06/26 08:22:36;;;;;;;11.83;4.97;;;24.80;61.60;;;;;;5109755;28;20422;-75
2023/06/26 08:25:04;;;;;;;9.63;5.80;;;24.90;61.50;;;;;;5071903;28;20454;-74
2023/06/26 08:27:29;;;;;;;7.23;4.30;;;24.90;60.80;;;;;;5098915;28;20184;-74
2023/06/26 08:29:56;;;;;;;11.57;4.77;;;24.90;60.90;;;;;;5107561;28;20492;-75
2023/06/26 08:32:22;;;;;;;7.93;5.00;;;24.90;60.00;;;;;;5073206;28;20269;-72
2023/06/26 08:34:47;;;;;;;8.30;4.73;;;24.70;60.60;;;;;;5107645;28;20541;-72
2023/06/26 08:37:13;;;;;;;7.80;4.73;;;24.70;60.30;;;;;;5080078;28;20203;-74
2023/06/26 08:39:39;;;;;;;9.20;5.40;;;24.50;60.90;;;;;;5112162;28;20207;-76
2023/06/26 08:42:05;;;;;;;7.83;4.97;;;24.50;61.00;;;;;;5111303;28;20180;-77
2023/06/26 08:44:30;;;;;;;10.03;4.67;;;24.40;60.60;;;;;;5108890;28;20344;-73
2023/06/26 08:46:59;;;;;;;9.30;5.43;;;24.30;60.90;;;;;;5069809;28;20240;-75
2023/06/26 08:49:50;;;;;;;7.23;5.10;;;24.30;61.70;;;;;;5083981;28;20270;-73
2023/06/26 08:52:30;;;;;;;8.57;4.60;;;24.20;63.50;;;;;;5071971;28;20499;-74
2023/06/26 08:54:59;;;;;;;11.63;5.50;;;24.40;62.30;;;;;;5092240;28;20418;-75
2023/06/26 08:57:26;;;;;;;8.33;4.60;;;24.60;60.60;;;;;;5090948;28;20411;-74
2023/06/26 08:59:52;;;;;;;7.43;5.43;;;24.60;60.70;;;;;;5128748;28;20441;-75
2023/06/26 09:02:20;;;;;;;8.17;5.43;;;24.80;60.40;;;;;;5083059;28;20415;-73
2023/06/26 09:04:47;;;;;;;13.23;5.90;;;24.90;59.80;;;;;;5083425;28;20514;-76
2023/06/26 09:07:13;;;;;;;11.23;5.33;;;24.90;59.30;;;;;;5112085;28;20429;-76
2023/06/26 09:09:39;;;;;;;7.57;5.07;;;24.70;59.40;;;;;;5100720;28;20426;-75
2023/06/26 09:12:05;;;;;;;9.97;4.77;;;24.90;59.20;;;;;;5070449;28;20459;-76
2023/06/26 09:14:31;;;;;;;7.73;5.00;;;24.90;59.50;;;;;;5087174;28;20192;-75
2023/06/26 09:16:57;;;;;;;10.23;4.77;;;24.80;59.60;;;;;;5087083;28;20416;-76
2023/06/26 09:19:23;;;;;;;6.77;4.60;;;24.90;60.10;;;;;;5086169;28;20442;-76
2023/06/26 09:21:51;;;;;;;8.53;4.70;;;25.10;59.40;;;;;;5068919;28;20177;-74
2023/06/26 09:24:17;;;;;;;8.80;4.80;;;25.40;58.60;;;;;;5088841;28;20201;-77
2023/06/26 09:26:43;;;;;;;8.40;4.50;;;25.50;57.30;;;;;;5080159;28;20505;-76
2023/06/26 09:29:09;;;;;;;10.80;5.00;;;25.60;57.70;;;;;;5091014;28;20457;-75
2023/06/26 09:31:38;;;;;;;8.60;5.30;;;25.60;57.40;;;;;;5109513;28;20413;-74
2023/06/26 09:34:04;;;;;;;8.10;4.43;;;25.40;56.90;;;;;;5108795;28;20425;-77
2023/06/26 09:36:32;;;;;;;9.43;4.20;;;25.40;57.00;;;;;;5090145;28;20446;-73
2023/06/26 09:39:01;;;;;;;8.27;4.70;;;25.40;56.80;;;;;;5093377;28;20450;-73
2023/06/26 09:41:28;;;;;;;11.90;5.40;;;25.10;56.70;;;;;;5108326;28;20495;-74
2023/06/26 09:43:54;;;;;;;7.37;4.60;;;25.00;56.10;;;;;;5091371;28;20457;-76
2023/06/26 09:46:27;;;;;;;11.10;3.70;;;25.10;55.40;;;;;;5118132;28;20418;-77
2023/06/26 09:49:07;;;;;;;8.13;4.80;;;25.00;55.50;;;;;;5111176;28;20610;-76
2023/06/26 09:51:34;;;;;;;12.33;5.03;;;24.90;56.10;;;;;;5095902;28;20414;-75
2023/06/26 09:54:00;;;;;;;13.03;4.73;;;24.70;56.90;;;;;;5127086;28;20460;-76
2023/06/26 09:56:28;;;;;;;7.53;3.70;;;24.70;57.80;;;;;;5109536;28;20439;-76
2023/06/26 09:59:02;;;;;;;6.87;4.70;;;25.00;57.50;;;;;;5071108;28;20415;-76
2023/06/26 10:01:28;;;;;;;8.10;4.47;;;25.20;56.40;;;;;;5085303;28;20512;-73
2023/06/26 10:03:56;;;;;;;8.43;4.03;;;25.10;55.60;;;;;;5111409;28;20453;-75
2023/06/26 10:06:28;;;;;;;9.93;4.13;;;25.10;55.50;;;;;;5112095;28;20486;-75
2023/06/26 10:08:56;;;;;;;6.67;3.50;;;25.10;55.30;;;;;;5099039;28;20409;-77
2023/06/26 10:11:22;;;;;;;7.50;4.17;;;25.10;54.70;;;;;;5091677;28;20427;-76
2023/06/26 10:13:51;;;;;;;7.67;3.43;;;25.10;54.70;;;;;;5100372;28;20539;-77
2023/06/26 10:16:28;;;;;;;8.17;3.50;;;25.10;54.80;;;;;;5033811;28;20422;-76
2023/06/26 10:18:58;;;;;;;8.07;4.20;;;25.10;54.00;;;;;;5048379;28;20503;-78
2023/06/26 10:21:28;;;;;;;6.90;4.93;;;25.10;53.70;;;;;;5050275;28;20412;-75
2023/06/26 10:23:56;;;;;;;7.80;4.67;;;25.00;53.40;;;;;;5035917;28;20439;-77
2023/06/26 10:26:22;;;;;;;10.50;4.40;;;24.90;53.50;;;;;;5051691;28;20412;-74
2023/06/26 10:28:52;;;;;;;4.47;3.60;;;24.70;54.40;;;;;;5050441;28;20507;-77
2023/06/26 10:31:21;;;;;;;10.40;3.70;;;24.80;54.10;;;;;;5043759;28;20495;-77
2023/06/26 10:33:47;;;;;;;8.00;4.40;;;25.00;53.60;;;;;;5034061;28;20432;-77
2023/06/26 10:36:18;;;;;;;7.97;3.90;;;25.20;52.90;;;;;;5066849;28;20416;-76
2023/06/26 10:38:55;;;;;;;9.77;3.67;;;25.30;52.60;;;;;;5031283;28;20716;-73
2023/06/26 10:41:25;;;;;;;6.33;3.70;;;25.40;51.90;;;;;;5029241;28;20475;-75
2023/06/26 10:43:59;;;;;;;9.90;4.83;;;25.50;50.80;;;;;;5031099;28;20416;-73
2023/06/26 10:46:25;;;;;;;6.97;3.90;;;25.40;51.50;;;;;;5052003;28;20418;-76
2023/06/26 10:48:57;;;;;;;5.20;3.40;;;25.20;51.10;;;;;;5110036;28;20429;-72
2023/06/26 10:51:24;;;;;;;7.30;4.17;;;25.00;51.40;;;;;;5134298;28;20171;-77
2023/06/26 10:53:54;;;;;;;3.87;2.97;;;25.00;52.00;;;;;;5115653;28;20413;-78
2023/06/26 10:56:20;;;;;;;5.00;2.97;;;25.10;50.30;;;;;;5114790;28;20477;-77
2023/06/26 10:58:47;;;;;;;5.70;3.23;;;25.10;50.20;;;;;;5130999;28;20417;-74
2023/06/26 11:01:20;;;;;;;10.13;4.50;;;25.20;50.40;;;;;;5100690;28;20183;-75
2023/06/26 11:03:58;;;;;;;7.17;3.40;;;25.40;50.20;;;;;;5100615;28;20530;-76
2023/06/26 11:06:24;;;;;;;7.23;3.70;;;25.50;49.90;;;;;;5056072;28;20403;-76
2023/06/26 11:08:53;;;;;;;9.40;3.90;;;25.60;49.90;;;;;;5072388;28;20683;-76
2023/06/26 11:11:20;;;;;;;12.87;4.60;;;25.60;49.80;;;;;;5061884;28;20191;-75
2023/06/26 11:13:47;;;;;;;6.13;2.77;;;25.50;46.90;;;;;;5096332;28;20437;-77
2023/06/26 11:16:14;;;;;;;8.23;3.50;;;25.30;45.60;;;;;;5079310;28;20407;-76
2023/06/26 11:18:40;;;;;;;6.07;2.63;;;25.20;46.20;;;;;;5054316;28;20660;-76
2023/06/26 11:21:08;;;;;;;7.60;3.40;;;25.20;47.20;;;;;;5089831;28;20711;-76
2023/06/26 11:23:35;;;;;;;6.00;3.37;;;25.10;47.00;;;;;;5077814;28;20413;-75
2023/06/26 11:26:18;;;;;;;6.00;3.70;;;25.00;47.60;;;;;;5130309;28;20453;-74
2023/06/26 11:28:56;;;;;;;4.60;3.07;;;25.20;48.40;;;;;;5111100;28;20409;-76
2023/06/26 11:31:32;;;;;;;5.30;3.10;;;25.20;49.20;;;;;;5107641;28;20414;-76
2023/06/26 11:34:03;;;;;;;10.70;3.37;;;25.20;46.80;;;;;;5110258;28;20434;-78
2023/06/26 11:36:30;;;;;;;4.70;2.90;;;25.30;46.00;;;;;;5102807;28;20497;-76
2023/06/26 11:38:57;;;;;;;2.80;2.27;;;25.40;46.20;;;;;;5096025;28;20453;-77
2023/06/26 11:41:25;;;;;;;3.30;2.60;;;25.60;46.60;;;;;;5077370;28;20475;-75
2023/06/26 11:43:52;;;;;;;12.33;3.03;;;25.80;45.90;;;;;;5077468;28;20425;-76
2023/06/26 11:46:18;;;;;;;9.53;3.20;;;26.20;45.20;;;;;;5078799;28;20948;-76
2023/06/26 11:48:44;;;;;;;5.53;2.87;;;26.40;44.30;;;;;;5055045;28;20388;-75
2023/06/26 11:51:14;;;;;;;10.53;3.83;;;26.50;44.80;;;;;;5071073;28;20403;-78
2023/06/26 11:53:44;;;;;;;6.17;3.37;;;26.50;45.00;;;;;;5079742;28;20198;-75
2023/06/26 11:56:22;;;;;;;7.33;3.50;;;26.30;45.30;;;;;;5091451;28;20406;-76
2023/06/26 11:59:03;;;;;;;6.07;2.83;;;26.20;45.20;;;;;;5073821;28;20409;-75
2023/06/26 12:01:35;;;;;;;8.50;3.10;;;25.90;45.30;;;;;;5075514;28;20426;-74
2023/06/26 12:04:06;;;;;;;12.00;3.20;;;25.70;44.30;;;;;;5056678;28;20573;-76
2023/06/26 12:06:34;;;;;;;6.50;2.33;;;25.60;42.60;;;;;;5072115;28;20396;-77
2023/06/26 12:09:05;;;;;;;5.63;2.33;;;25.60;42.50;;;;;;5091042;28;20439;-73
2023/06/26 12:11:32;;;;;;;4.07;2.57;;;25.80;42.20;;;;;;5069797;28;20729;-76
2023/06/26 12:13:59;;;;;;;4.17;2.80;;;25.90;42.40;;;;;;5093514;28;20450;-76
2023/06/26 12:16:25;;;;;;;4.53;2.60;;;25.90;42.80;;;;;;5094218;28;20428;-75
2023/06/26 12:18:51;;;;;;;5.50;2.50;;;26.10;43.40;;;;;;5094027;28;20444;-76
2023/06/26 12:21:38;;;;;;;6.53;3.00;;;26.30;43.70;;;;;;5111731;28;20409;-78
2023/06/26 12:24:05;;;;;;;4.17;2.73;;;26.60;43.60;;;;;;5102095;28;20671;-77
2023/06/26 12:26:33;;;;;;;4.03;2.33;;;26.70;43.60;;;;;;5077898;28;20433;-76
2023/06/26 12:29:06;;;;;;;7.37;2.77;;;26.90;42.90;;;;;;5072981;28;20450;-77
2023/06/26 12:31:32;;;;;;;4.53;2.43;;;27.00;42.50;;;;;;5094661;28;20417;-75
2023/06/26 12:33:58;;;;;;;4.73;2.70;;;26.80;42.70;;;;;;5092307;28;20895;-77
2023/06/26 12:36:24;;;;;;;10.33;4.03;;;26.70;42.90;;;;;;5129061;28;20394;-77
2023/06/26 12:38:52;;;;;;;5.70;2.83;;;26.70;43.50;;;;;;5110955;28;20531;-76
2023/06/26 12:41:20;;;;;;;4.60;2.90;;;26.40;42.60;;;;;;5086471;28;20196;-77
2023/06/26 12:43:46;;;;;;;8.43;2.40;;;26.40;43.10;;;;;;5080207;28;20423;-73
2023/06/26 12:46:12;;;;;;;5.33;3.10;;;26.50;42.70;;;;;;5102096;28;20748;-76